sensor_id;sensor_type;location;lat;lon;timestamp;P1;durP1;ratioP1;P2;durP2;ratioP2
74371;SDS011;62885;51.374;6.170;2023-08-08T00:01:17;4.57;;;2.08;;
74371;SDS011;62885;51.374;6.170;2023-08-08T00:03:42;3.70;;;1.85;;
74371;SDS011;62885;51.374;6.170;2023-08-08T00:06:07;5.78;;;1.65;;
74371;SDS011;62885;51.374;6.170;2023-08-08T00:08:33;5.88;;;1.83;;
74371;SDS011;62885;51.374;6.170;2023-08-08T00:10:58;2.97;;;1.70;;
74371;SDS011;62885;51.374;6.170;2023-08-08T00:13:24;4.88;;;2.00;;
74371;SDS011;62885;51.374;6.170;2023-08-08T00:15:49;3.42;;;1.85;;
74371;SDS011;62885;51.374;6.170;2023-08-08T00:18:14;3.83;;;1.95;;
74371;SDS011;62885;51.374;6.170;2023-08-08T00:20:40;4.30;;;1.98;;
74371;SDS011;62885;51.374;6.170;2023-08-08T00:23:05;3.63;;;1.65;;
74371;SDS011;62885;51.374;6.170;2023-08-08T00:25:30;4.00;;;1.95;;
74371;SDS011;62885;51.374;6.170;2023-08-08T00:27:56;5.55;;;2.22;;
74371;SDS011;62885;51.374;6.170;2023-08-08T00:30:21;3.78;;;1.85;;
74371;SDS011;62885;51.374;6.170;2023-08-08T00:32:46;6.22;;;2.28;;
74371;SDS011;62885;51.374;6.170;2023-08-08T00:35:12;5.80;;;2.08;;
74371;SDS011;62885;51.374;6.170;2023-08-08T00:37:37;5.68;;;2.20;;
74371;SDS011;62885;51.374;6.170;2023-08-08T00:40:03;7.38;;;2.10;;
74371;SDS011;62885;51.374;6.170;2023-08-08T00:42:28;4.75;;;2.10;;
74371;SDS011;62885;51.374;6.170;2023-08-08T00:44:54;4.55;;;2.03;;
74371;SDS011;62885;51.374;6.170;2023-08-08T00:47:19;4.13;;;1.90;;
74371;SDS011;62885;51.374;6.170;2023-08-08T00:49:45;5.78;;;2.10;;
74371;SDS011;62885;51.374;6.170;2023-08-08T00:52:13;5.15;;;2.15;;
74371;SDS011;62885;51.374;6.170;2023-08-08T00:54:39;4.85;;;2.17;;
74371;SDS011;62885;51.374;6.170;2023-08-08T00:57:05;5.68;;;2.20;;
74371;SDS011;62885;51.374;6.170;2023-08-08T00:59:30;3.78;;;1.77;;
74371;SDS011;62885;51.374;6.170;2023-08-08T01:01:56;7.15;;;2.50;;
74371;SDS011;62885;51.374;6.170;2023-08-08T01:04:22;4.82;;;2.05;;
74371;SDS011;62885;51.374;6.170;2023-08-08T01:09:55;5.38;;;2.00;;
74371;SDS011;62885;51.374;6.170;2023-08-08T01:12:29;5.57;;;2.05;;
74371;SDS011;62885;51.374;6.170;2023-08-08T01:14:55;5.07;;;2.03;;
74371;SDS011;62885;51.374;6.170;2023-08-08T01:17:21;4.70;;;2.15;;
74371;SDS011;62885;51.374;6.170;2023-08-08T01:19:49;5.65;;;2.20;;
74371;SDS011;62885;51.374;6.170;2023-08-08T01:22:25;5.90;;;1.83;;
74371;SDS011;62885;51.374;6.170;2023-08-08T01:24:57;4.95;;;2.00;;
74371;SDS011;62885;51.374;6.170;2023-08-08T01:27:24;7.30;;;3.13;;
74371;SDS011;62885;51.374;6.170;2023-08-08T01:29:50;7.80;;;2.55;;
74371;SDS011;62885;51.374;6.170;2023-08-08T01:32:15;5.28;;;2.22;;
74371;SDS011;62885;51.374;6.170;2023-08-08T01:34:40;5.28;;;2.25;;
74371;SDS011;62885;51.374;6.170;2023-08-08T01:37:11;4.75;;;2.50;;
74371;SDS011;62885;51.374;6.170;2023-08-08T01:39:42;3.33;;;1.90;;
74371;SDS011;62885;51.374;6.170;2023-08-08T01:42:11;6.15;;;1.98;;
74371;SDS011;62885;51.374;6.170;2023-08-08T01:44:39;5.75;;;2.13;;
74371;SDS011;62885;51.374;6.170;2023-08-08T01:47:07;8.70;;;2.42;;
74371;SDS011;62885;51.374;6.170;2023-08-08T01:49:33;4.50;;;2.35;;
74371;SDS011;62885;51.374;6.170;2023-08-08T01:51:58;5.32;;;2.40;;
74371;SDS011;62885;51.374;6.170;2023-08-08T01:54:24;4.50;;;2.00;;
74371;SDS011;62885;51.374;6.170;2023-08-08T01:56:50;5.45;;;2.25;;
74371;SDS011;62885;51.374;6.170;2023-08-08T01:59:15;5.65;;;2.30;;
74371;SDS011;62885;51.374;6.170;2023-08-08T02:01:40;5.20;;;2.10;;
74371;SDS011;62885;51.374;6.170;2023-08-08T02:04:06;4.88;;;2.28;;
74371;SDS011;62885;51.374;6.170;2023-08-08T02:06:31;11.15;;;2.20;;
74371;SDS011;62885;51.374;6.170;2023-08-08T02:08:57;5.80;;;2.22;;
74371;SDS011;62885;51.374;6.170;2023-08-08T02:11:23;5.57;;;2.33;;
74371;SDS011;62885;51.374;6.170;2023-08-08T02:13:48;3.90;;;1.88;;
74371;SDS011;62885;51.374;6.170;2023-08-08T02:16:13;4.65;;;2.05;;
74371;SDS011;62885;51.374;6.170;2023-08-08T02:18:39;5.78;;;2.33;;
74371;SDS011;62885;51.374;6.170;2023-08-08T02:21:06;6.75;;;2.08;;
74371;SDS011;62885;51.374;6.170;2023-08-08T02:23:32;5.32;;;2.10;;
74371;SDS011;62885;51.374;6.170;2023-08-08T02:25:58;4.82;;;1.98;;
74371;SDS011;62885;51.374;6.170;2023-08-08T02:28:23;5.13;;;1.92;;
74371;SDS011;62885;51.374;6.170;2023-08-08T02:30:49;6.18;;;2.55;;
74371;SDS011;62885;51.374;6.170;2023-08-08T02:33:14;4.65;;;2.17;;
74371;SDS011;62885;51.374;6.170;2023-08-08T02:35:39;5.47;;;1.80;;
74371;SDS011;62885;51.374;6.170;2023-08-08T02:38:05;4.95;;;1.95;;
74371;SDS011;62885;51.374;6.170;2023-08-08T02:40:30;5.97;;;2.20;;
74371;SDS011;62885;51.374;6.170;2023-08-08T02:42:56;8.27;;;2.45;;
74371;SDS011;62885;51.374;6.170;2023-08-08T02:45:21;4.80;;;1.80;;
74371;SDS011;62885;51.374;6.170;2023-08-08T02:47:46;5.90;;;2.10;;
74371;SDS011;62885;51.374;6.170;2023-08-08T02:50:12;6.00;;;2.00;;
74371;SDS011;62885;51.374;6.170;2023-08-08T02:52:37;5.40;;;2.15;;
74371;SDS011;62885;51.374;6.170;2023-08-08T02:55:03;5.53;;;2.50;;
74371;SDS011;62885;51.374;6.170;2023-08-08T02:57:28;8.18;;;2.25;;
74371;SDS011;62885;51.374;6.170;2023-08-08T02:59:54;6.03;;;2.10;;
74371;SDS011;62885;51.374;6.170;2023-08-08T03:02:19;6.10;;;2.00;;
74371;SDS011;62885;51.374;6.170;2023-08-08T03:04:44;6.85;;;2.42;;
74371;SDS011;62885;51.374;6.170;2023-08-08T03:07:10;4.80;;;2.10;;
74371;SDS011;62885;51.374;6.170;2023-08-08T03:09:35;5.05;;;2.53;;
74371;SDS011;62885;51.374;6.170;2023-08-08T03:12:00;5.80;;;2.35;;
74371;SDS011;62885;51.374;6.170;2023-08-08T03:14:26;5.82;;;2.05;;
74371;SDS011;62885;51.374;6.170;2023-08-08T03:16:51;5.07;;;2.00;;
74371;SDS011;62885;51.374;6.170;2023-08-08T03:19:17;9.32;;;2.53;;
74371;SDS011;62885;51.374;6.170;2023-08-08T03:21:42;7.10;;;2.53;;
74371;SDS011;62885;51.374;6.170;2023-08-08T03:24:07;10.70;;;2.90;;
74371;SDS011;62885;51.374;6.170;2023-08-08T03:26:33;7.07;;;1.80;;
74371;SDS011;62885;51.374;6.170;2023-08-08T03:28:58;5.70;;;2.60;;
74371;SDS011;62885;51.374;6.170;2023-08-08T03:31:23;6.63;;;2.13;;
74371;SDS011;62885;51.374;6.170;2023-08-08T03:33:51;6.80;;;2.50;;
74371;SDS011;62885;51.374;6.170;2023-08-08T03:36:16;5.85;;;2.58;;
74371;SDS011;62885;51.374;6.170;2023-08-08T03:38:41;7.65;;;3.20;;
74371;SDS011;62885;51.374;6.170;2023-08-08T03:41:11;8.27;;;2.38;;
74371;SDS011;62885;51.374;6.170;2023-08-08T03:43:37;3.85;;;2.28;;
74371;SDS011;62885;51.374;6.170;2023-08-08T03:46:03;5.07;;;2.38;;
74371;SDS011;62885;51.374;6.170;2023-08-08T03:48:28;6.88;;;2.40;;
74371;SDS011;62885;51.374;6.170;2023-08-08T03:50:54;7.97;;;2.75;;
74371;SDS011;62885;51.374;6.170;2023-08-08T03:53:19;6.18;;;2.22;;
74371;SDS011;62885;51.374;6.170;2023-08-08T03:55:44;7.38;;;2.28;;
74371;SDS011;62885;51.374;6.170;2023-08-08T03:58:10;6.18;;;2.30;;
74371;SDS011;62885;51.374;6.170;2023-08-08T04:00:35;7.95;;;2.50;;
74371;SDS011;62885;51.374;6.170;2023-08-08T04:03:02;8.45;;;2.40;;
74371;SDS011;62885;51.374;6.170;2023-08-08T04:05:28;7.65;;;2.92;;
74371;SDS011;62885;51.374;6.170;2023-08-08T04:07:53;6.70;;;2.85;;
74371;SDS011;62885;51.374;6.170;2023-08-08T04:10:18;5.50;;;2.60;;
74371;SDS011;62885;51.374;6.170;2023-08-08T04:12:44;8.43;;;2.75;;
74371;SDS011;62885;51.374;6.170;2023-08-08T04:15:11;11.57;;;3.13;;
74371;SDS011;62885;51.374;6.170;2023-08-08T04:17:37;10.45;;;2.58;;
74371;SDS011;62885;51.374;6.170;2023-08-08T04:20:02;6.32;;;2.42;;
74371;SDS011;62885;51.374;6.170;2023-08-08T04:22:30;6.60;;;3.05;;
74371;SDS011;62885;51.374;6.170;2023-08-08T04:24:55;6.90;;;2.20;;
74371;SDS011;62885;51.374;6.170;2023-08-08T04:27:21;7.50;;;2.60;;
74371;SDS011;62885;51.374;6.170;2023-08-08T04:29:46;11.23;;;2.80;;
74371;SDS011;62885;51.374;6.170;2023-08-08T04:32:12;6.35;;;2.67;;
74371;SDS011;62885;51.374;6.170;2023-08-08T04:34:37;8.40;;;2.80;;
74371;SDS011;62885;51.374;6.170;2023-08-08T04:37:03;6.80;;;2.25;;
74371;SDS011;62885;51.374;6.170;2023-08-08T04:39:28;7.82;;;2.17;;
74371;SDS011;62885;51.374;6.170;2023-08-08T04:41:54;10.70;;;2.67;;
74371;SDS011;62885;51.374;6.170;2023-08-08T04:44:19;9.35;;;3.40;;
74371;SDS011;62885;51.374;6.170;2023-08-08T04:46:44;9.00;;;2.80;;
74371;SDS011;62885;51.374;6.170;2023-08-08T04:49:10;8.15;;;3.20;;
74371;SDS011;62885;51.374;6.170;2023-08-08T04:51:35;9.32;;;2.90;;
74371;SDS011;62885;51.374;6.170;2023-08-08T04:54:00;10.38;;;2.83;;
74371;SDS011;62885;51.374;6.170;2023-08-08T04:56:26;7.40;;;2.72;;
74371;SDS011;62885;51.374;6.170;2023-08-08T04:58:51;10.32;;;2.58;;
74371;SDS011;62885;51.374;6.170;2023-08-08T05:01:16;6.38;;;2.78;;
74371;SDS011;62885;51.374;6.170;2023-08-08T05:03:45;12.52;;;2.88;;
74371;SDS011;62885;51.374;6.170;2023-08-08T05:06:10;9.30;;;2.70;;
74371;SDS011;62885;51.374;6.170;2023-08-08T05:08:36;8.43;;;3.28;;
74371;SDS011;62885;51.374;6.170;2023-08-08T05:11:01;6.60;;;2.63;;
74371;SDS011;62885;51.374;6.170;2023-08-08T05:13:26;7.38;;;2.75;;
74371;SDS011;62885;51.374;6.170;2023-08-08T05:15:52;8.90;;;3.05;;
74371;SDS011;62885;51.374;6.170;2023-08-08T05:18:17;7.03;;;2.80;;
74371;SDS011;62885;51.374;6.170;2023-08-08T05:20:43;7.75;;;3.17;;
74371;SDS011;62885;51.374;6.170;2023-08-08T05:23:08;11.63;;;3.42;;
74371;SDS011;62885;51.374;6.170;2023-08-08T05:25:33;8.00;;;3.05;;
74371;SDS011;62885;51.374;6.170;2023-08-08T05:27:59;8.88;;;3.85;;
74371;SDS011;62885;51.374;6.170;2023-08-08T05:30:24;9.82;;;3.78;;
74371;SDS011;62885;51.374;6.170;2023-08-08T05:32:49;10.55;;;3.85;;
74371;SDS011;62885;51.374;6.170;2023-08-08T05:35:15;9.30;;;3.20;;
74371;SDS011;62885;51.374;6.170;2023-08-08T05:37:40;7.32;;;3.20;;
74371;SDS011;62885;51.374;6.170;2023-08-08T05:40:05;8.48;;;3.47;;
74371;SDS011;62885;51.374;6.170;2023-08-08T05:42:32;11.20;;;3.17;;
74371;SDS011;62885;51.374;6.170;2023-08-08T05:44:57;6.45;;;2.70;;
74371;SDS011;62885;51.374;6.170;2023-08-08T05:47:23;7.80;;;3.17;;
74371;SDS011;62885;51.374;6.170;2023-08-08T05:49:48;10.35;;;3.22;;
74371;SDS011;62885;51.374;6.170;2023-08-08T05:52:13;9.27;;;3.28;;
74371;SDS011;62885;51.374;6.170;2023-08-08T05:54:39;8.45;;;3.22;;
74371;SDS011;62885;51.374;6.170;2023-08-08T05:57:04;7.65;;;3.25;;
74371;SDS011;62885;51.374;6.170;2023-08-08T05:59:30;9.30;;;3.22;;
74371;SDS011;62885;51.374;6.170;2023-08-08T06:01:55;7.97;;;3.40;;
74371;SDS011;62885;51.374;6.170;2023-08-08T06:04:21;7.63;;;3.05;;
74371;SDS011;62885;51.374;6.170;2023-08-08T06:06:46;8.48;;;3.45;;
74371;SDS011;62885;51.374;6.170;2023-08-08T06:09:14;9.63;;;3.30;;
74371;SDS011;62885;51.374;6.170;2023-08-08T06:11:40;6.50;;;2.85;;
74371;SDS011;62885;51.374;6.170;2023-08-08T06:14:05;10.65;;;4.03;;
74371;SDS011;62885;51.374;6.170;2023-08-08T06:16:30;11.48;;;3.13;;
74371;SDS011;62885;51.374;6.170;2023-08-08T06:18:56;10.02;;;3.28;;
74371;SDS011;62885;51.374;6.170;2023-08-08T06:21:21;7.50;;;3.22;;
74371;SDS011;62885;51.374;6.170;2023-08-08T06:23:46;8.50;;;3.50;;
74371;SDS011;62885;51.374;6.170;2023-08-08T06:26:12;12.88;;;3.20;;
74371;SDS011;62885;51.374;6.170;2023-08-08T06:28:39;7.65;;;3.28;;
74371;SDS011;62885;51.374;6.170;2023-08-08T06:31:04;13.15;;;3.28;;
74371;SDS011;62885;51.374;6.170;2023-08-08T06:33:29;8.75;;;3.10;;
74371;SDS011;62885;51.374;6.170;2023-08-08T06:35:55;8.60;;;2.92;;
74371;SDS011;62885;51.374;6.170;2023-08-08T06:38:21;11.43;;;4.03;;
74371;SDS011;62885;51.374;6.170;2023-08-08T06:40:46;12.25;;;2.85;;
74371;SDS011;62885;51.374;6.170;2023-08-08T06:43:12;9.68;;;2.83;;
74371;SDS011;62885;51.374;6.170;2023-08-08T06:45:38;7.93;;;3.00;;
74371;SDS011;62885;51.374;6.170;2023-08-08T06:48:04;8.27;;;2.60;;
74371;SDS011;62885;51.374;6.170;2023-08-08T06:50:30;11.93;;;3.08;;
74371;SDS011;62885;51.374;6.170;2023-08-08T06:52:55;10.80;;;2.65;;
74371;SDS011;62885;51.374;6.170;2023-08-08T06:55:20;10.43;;;2.90;;
74371;SDS011;62885;51.374;6.170;2023-08-08T06:57:46;7.47;;;3.58;;
74371;SDS011;62885;51.374;6.170;2023-08-08T07:00:11;5.72;;;2.33;;
74371;SDS011;62885;51.374;6.170;2023-08-08T07:02:38;9.95;;;2.92;;
74371;SDS011;62885;51.374;6.170;2023-08-08T07:05:04;7.60;;;2.70;;
74371;SDS011;62885;51.374;6.170;2023-08-08T07:07:30;7.72;;;3.28;;
74371;SDS011;62885;51.374;6.170;2023-08-08T07:09:58;9.80;;;2.95;;
74371;SDS011;62885;51.374;6.170;2023-08-08T07:12:24;6.53;;;2.50;;
74371;SDS011;62885;51.374;6.170;2023-08-08T07:14:49;11.10;;;2.72;;
74371;SDS011;62885;51.374;6.170;2023-08-08T07:17:15;10.82;;;3.35;;
74371;SDS011;62885;51.374;6.170;2023-08-08T07:19:40;11.63;;;3.58;;
74371;SDS011;62885;51.374;6.170;2023-08-08T07:22:06;8.35;;;3.72;;
74371;SDS011;62885;51.374;6.170;2023-08-08T07:24:31;9.68;;;3.50;;
74371;SDS011;62885;51.374;6.170;2023-08-08T07:26:58;9.10;;;2.92;;
74371;SDS011;62885;51.374;6.170;2023-08-08T07:29:24;6.45;;;2.88;;
74371;SDS011;62885;51.374;6.170;2023-08-08T07:31:53;10.00;;;2.60;;
74371;SDS011;62885;51.374;6.170;2023-08-08T07:34:19;15.20;;;3.00;;
74371;SDS011;62885;51.374;6.170;2023-08-08T07:36:45;12.32;;;3.42;;
74371;SDS011;62885;51.374;6.170;2023-08-08T07:39:11;9.75;;;3.03;;
74371;SDS011;62885;51.374;6.170;2023-08-08T07:41:36;8.32;;;2.30;;
74371;SDS011;62885;51.374;6.170;2023-08-08T07:44:03;8.98;;;2.75;;
74371;SDS011;62885;51.374;6.170;2023-08-08T07:46:29;7.95;;;3.00;;
74371;SDS011;62885;51.374;6.170;2023-08-08T07:48:55;9.93;;;3.10;;
74371;SDS011;62885;51.374;6.170;2023-08-08T07:51:20;10.05;;;2.80;;
74371;SDS011;62885;51.374;6.170;2023-08-08T07:53:46;8.90;;;2.58;;
74371;SDS011;62885;51.374;6.170;2023-08-08T07:56:11;10.70;;;3.28;;
74371;SDS011;62885;51.374;6.170;2023-08-08T07:58:36;7.28;;;2.90;;
74371;SDS011;62885;51.374;6.170;2023-08-08T08:01:02;8.43;;;2.63;;
74371;SDS011;62885;51.374;6.170;2023-08-08T08:03:28;6.53;;;2.95;;
74371;SDS011;62885;51.374;6.170;2023-08-08T08:05:53;9.02;;;2.97;;
74371;SDS011;62885;51.374;6.170;2023-08-08T08:08:18;5.68;;;2.65;;
74371;SDS011;62885;51.374;6.170;2023-08-08T08:10:44;7.70;;;2.90;;
74371;SDS011;62885;51.374;6.170;2023-08-08T08:13:10;9.32;;;3.25;;
74371;SDS011;62885;51.374;6.170;2023-08-08T08:15:37;7.10;;;2.97;;
74371;SDS011;62885;51.374;6.170;2023-08-08T08:18:02;9.75;;;3.28;;
74371;SDS011;62885;51.374;6.170;2023-08-08T08:20:28;8.73;;;3.00;;
74371;SDS011;62885;51.374;6.170;2023-08-08T08:22:53;7.25;;;2.72;;
74371;SDS011;62885;51.374;6.170;2023-08-08T08:25:19;8.75;;;3.10;;
74371;SDS011;62885;51.374;6.170;2023-08-08T08:27:44;6.55;;;2.70;;
74371;SDS011;62885;51.374;6.170;2023-08-08T08:30:10;9.55;;;2.95;;
74371;SDS011;62885;51.374;6.170;2023-08-08T08:32:36;9.25;;;2.92;;
74371;SDS011;62885;51.374;6.170;2023-08-08T08:35:02;7.25;;;2.72;;
74371;SDS011;62885;51.374;6.170;2023-08-08T08:37:31;9.10;;;2.58;;
74371;SDS011;62885;51.374;6.170;2023-08-08T08:39:56;10.00;;;3.13;;
74371;SDS011;62885;51.374;6.170;2023-08-08T08:42:22;7.38;;;2.85;;
74371;SDS011;62885;51.374;6.170;2023-08-08T08:44:49;7.60;;;2.92;;
74371;SDS011;62885;51.374;6.170;2023-08-08T08:47:15;5.45;;;2.80;;
74371;SDS011;62885;51.374;6.170;2023-08-08T08:49:42;12.73;;;2.90;;
74371;SDS011;62885;51.374;6.170;2023-08-08T08:52:10;7.40;;;3.00;;
74371;SDS011;62885;51.374;6.170;2023-08-08T08:54:36;13.02;;;3.60;;
74371;SDS011;62885;51.374;6.170;2023-08-08T08:57:01;6.82;;;2.92;;
74371;SDS011;62885;51.374;6.170;2023-08-08T08:59:27;8.50;;;3.35;;
74371;SDS011;62885;51.374;6.170;2023-08-08T09:01:53;9.88;;;2.95;;
74371;SDS011;62885;51.374;6.170;2023-08-08T09:04:19;9.43;;;3.15;;
74371;SDS011;62885;51.374;6.170;2023-08-08T09:06:46;7.07;;;3.13;;
74371;SDS011;62885;51.374;6.170;2023-08-08T09:09:12;7.43;;;3.22;;
74371;SDS011;62885;51.374;6.170;2023-08-08T09:11:38;6.95;;;2.90;;
74371;SDS011;62885;51.374;6.170;2023-08-08T09:14:14;10.60;;;2.85;;
74371;SDS011;62885;51.374;6.170;2023-08-08T09:16:44;7.15;;;2.80;;
74371;SDS011;62885;51.374;6.170;2023-08-08T09:19:11;7.72;;;3.10;;
74371;SDS011;62885;51.374;6.170;2023-08-08T09:21:37;10.35;;;2.95;;
74371;SDS011;62885;51.374;6.170;2023-08-08T09:24:02;11.38;;;2.60;;
74371;SDS011;62885;51.374;6.170;2023-08-08T09:26:28;8.70;;;2.70;;
74371;SDS011;62885;51.374;6.170;2023-08-08T09:28:54;5.10;;;2.33;;
74371;SDS011;62885;51.374;6.170;2023-08-08T09:31:19;8.05;;;2.60;;
74371;SDS011;62885;51.374;6.170;2023-08-08T09:33:45;5.07;;;2.22;;
74371;SDS011;62885;51.374;6.170;2023-08-08T09:36:16;6.78;;;2.53;;
74371;SDS011;62885;51.374;6.170;2023-08-08T09:38:41;5.75;;;2.03;;
74371;SDS011;62885;51.374;6.170;2023-08-08T09:41:07;5.35;;;2.22;;
74371;SDS011;62885;51.374;6.170;2023-08-08T09:43:32;7.30;;;2.30;;
74371;SDS011;62885;51.374;6.170;2023-08-08T09:45:58;5.78;;;1.88;;
74371;SDS011;62885;51.374;6.170;2023-08-08T09:48:28;6.75;;;1.88;;
74371;SDS011;62885;51.374;6.170;2023-08-08T09:50:55;4.65;;;2.15;;
74371;SDS011;62885;51.374;6.170;2023-08-08T09:53:25;7.38;;;2.00;;
74371;SDS011;62885;51.374;6.170;2023-08-08T09:55:53;4.70;;;1.75;;
74371;SDS011;62885;51.374;6.170;2023-08-08T09:58:19;5.95;;;2.58;;
74371;SDS011;62885;51.374;6.170;2023-08-08T10:00:45;5.75;;;2.03;;
74371;SDS011;62885;51.374;6.170;2023-08-08T10:03:14;3.90;;;1.58;;
74371;SDS011;62885;51.374;6.170;2023-08-08T10:05:40;5.47;;;1.92;;
74371;SDS011;62885;51.374;6.170;2023-08-08T10:08:06;5.82;;;2.10;;
74371;SDS011;62885;51.374;6.170;2023-08-08T10:10:31;4.40;;;1.45;;
74371;SDS011;62885;51.374;6.170;2023-08-08T10:12:57;8.20;;;1.83;;
74371;SDS011;62885;51.374;6.170;2023-08-08T10:15:27;5.43;;;1.65;;
74371;SDS011;62885;51.374;6.170;2023-08-08T10:17:55;6.05;;;1.40;;
74371;SDS011;62885;51.374;6.170;2023-08-08T10:20:23;7.90;;;1.65;;
74371;SDS011;62885;51.374;6.170;2023-08-08T10:22:50;3.67;;;1.58;;
74371;SDS011;62885;51.374;6.170;2023-08-08T10:25:23;5.25;;;1.60;;
74371;SDS011;62885;51.374;6.170;2023-08-08T10:28:00;4.05;;;1.42;;
74371;SDS011;62885;51.374;6.170;2023-08-08T10:30:28;7.82;;;2.15;;
74371;SDS011;62885;51.374;6.170;2023-08-08T10:32:55;7.57;;;2.08;;
74371;SDS011;62885;51.374;6.170;2023-08-08T10:35:21;4.28;;;1.67;;
74371;SDS011;62885;51.374;6.170;2023-08-08T10:37:59;4.75;;;1.67;;
74371;SDS011;62885;51.374;6.170;2023-08-08T10:40:24;6.30;;;1.95;;
74371;SDS011;62885;51.374;6.170;2023-08-08T10:42:57;4.10;;;1.42;;
74371;SDS011;62885;51.374;6.170;2023-08-08T10:45:28;8.35;;;2.08;;
74371;SDS011;62885;51.374;6.170;2023-08-08T10:47:55;3.75;;;1.95;;
74371;SDS011;62885;51.374;6.170;2023-08-08T10:50:23;7.18;;;2.00;;
74371;SDS011;62885;51.374;6.170;2023-08-08T10:55:23;7.20;;;2.30;;
74371;SDS011;62885;51.374;6.170;2023-08-08T10:58:10;5.60;;;2.10;;
74371;SDS011;62885;51.374;6.170;2023-08-08T11:00:44;6.55;;;2.35;;
74371;SDS011;62885;51.374;6.170;2023-08-08T11:03:10;5.65;;;1.80;;
74371;SDS011;62885;51.374;6.170;2023-08-08T11:05:36;6.75;;;2.20;;
74371;SDS011;62885;51.374;6.170;2023-08-08T11:08:03;4.25;;;1.77;;
74371;SDS011;62885;51.374;6.170;2023-08-08T11:10:37;6.05;;;2.25;;
74371;SDS011;62885;51.374;6.170;2023-08-08T11:13:06;5.55;;;1.85;;
74371;SDS011;62885;51.374;6.170;2023-08-08T11:15:33;3.90;;;1.60;;
74371;SDS011;62885;51.374;6.170;2023-08-08T11:18:00;5.00;;;1.92;;
74371;SDS011;62885;51.374;6.170;2023-08-08T11:20:33;5.07;;;1.90;;
74371;SDS011;62885;51.374;6.170;2023-08-08T11:23:00;5.05;;;1.73;;
74371;SDS011;62885;51.374;6.170;2023-08-08T11:25:26;3.92;;;1.70;;
74371;SDS011;62885;51.374;6.170;2023-08-08T11:27:53;6.18;;;2.40;;
74371;SDS011;62885;51.374;6.170;2023-08-08T11:30:19;6.18;;;2.22;;
74371;SDS011;62885;51.374;6.170;2023-08-08T11:32:46;5.55;;;2.30;;
74371;SDS011;62885;51.374;6.170;2023-08-08T11:35:15;5.35;;;1.50;;
74371;SDS011;62885;51.374;6.170;2023-08-08T11:37:42;5.00;;;2.25;;
74371;SDS011;62885;51.374;6.170;2023-08-08T11:40:08;5.82;;;1.80;;
74371;SDS011;62885;51.374;6.170;2023-08-08T11:42:34;8.00;;;1.80;;
74371;SDS011;62885;51.374;6.170;2023-08-08T11:45:00;6.47;;;1.95;;
74371;SDS011;62885;51.374;6.170;2023-08-08T11:47:26;7.45;;;1.60;;
74371;SDS011;62885;51.374;6.170;2023-08-08T11:49:51;5.18;;;2.10;;
74371;SDS011;62885;51.374;6.170;2023-08-08T11:52:18;10.48;;;2.15;;
74371;SDS011;62885;51.374;6.170;2023-08-08T11:54:44;5.03;;;1.75;;
74371;SDS011;62885;51.374;6.170;2023-08-08T11:57:09;5.30;;;1.73;;
74371;SDS011;62885;51.374;6.170;2023-08-08T11:59:35;4.75;;;1.85;;
74371;SDS011;62885;51.374;6.170;2023-08-08T12:02:01;6.40;;;1.77;;
74371;SDS011;62885;51.374;6.170;2023-08-08T12:04:26;3.58;;;1.80;;
74371;SDS011;62885;51.374;6.170;2023-08-08T12:07:00;4.03;;;1.90;;
74371;SDS011;62885;51.374;6.170;2023-08-08T12:09:33;6.15;;;1.90;;
74371;SDS011;62885;51.374;6.170;2023-08-08T12:11:59;6.63;;;1.85;;
74371;SDS011;62885;51.374;6.170;2023-08-08T12:14:25;8.43;;;2.38;;
74371;SDS011;62885;51.374;6.170;2023-08-08T12:16:50;6.43;;;1.60;;
74371;SDS011;62885;51.374;6.170;2023-08-08T12:19:16;3.95;;;1.77;;
74371;SDS011;62885;51.374;6.170;2023-08-08T12:21:46;4.72;;;1.73;;
74371;SDS011;62885;51.374;6.170;2023-08-08T12:24:11;5.30;;;3.10;;
74371;SDS011;62885;51.374;6.170;2023-08-08T12:26:36;6.40;;;1.70;;
74371;SDS011;62885;51.374;6.170;2023-08-08T12:29:02;7.30;;;1.83;;
74371;SDS011;62885;51.374;6.170;2023-08-08T12:31:28;4.43;;;1.73;;
74371;SDS011;62885;51.374;6.170;2023-08-08T12:33:53;3.95;;;1.65;;
74371;SDS011;62885;51.374;6.170;2023-08-08T12:36:19;3.53;;;1.60;;
74371;SDS011;62885;51.374;6.170;2023-08-08T12:38:44;4.43;;;1.50;;
74371;SDS011;62885;51.374;6.170;2023-08-08T12:41:11;4.57;;;1.65;;
74371;SDS011;62885;51.374;6.170;2023-08-08T12:43:37;4.75;;;1.60;;
74371;SDS011;62885;51.374;6.170;2023-08-08T12:46:03;4.82;;;1.50;;
74371;SDS011;62885;51.374;6.170;2023-08-08T12:48:29;5.22;;;2.10;;
74371;SDS011;62885;51.374;6.170;2023-08-08T12:50:54;4.88;;;1.63;;
74371;SDS011;62885;51.374;6.170;2023-08-08T12:53:20;4.38;;;1.85;;
74371;SDS011;62885;51.374;6.170;2023-08-08T12:55:45;4.13;;;1.73;;
74371;SDS011;62885;51.374;6.170;2023-08-08T12:58:11;5.18;;;2.00;;
74371;SDS011;62885;51.374;6.170;2023-08-08T13:00:36;5.13;;;1.70;;
74371;SDS011;62885;51.374;6.170;2023-08-08T13:03:02;4.28;;;1.98;;
74371;SDS011;62885;51.374;6.170;2023-08-08T13:05:28;2.17;;;1.40;;
74371;SDS011;62885;51.374;6.170;2023-08-08T13:07:53;4.18;;;1.90;;
74371;SDS011;62885;51.374;6.170;2023-08-08T13:10:19;4.78;;;1.48;;
74371;SDS011;62885;51.374;6.170;2023-08-08T13:12:45;3.63;;;1.83;;
74371;SDS011;62885;51.374;6.170;2023-08-08T13:15:11;3.80;;;1.70;;
74371;SDS011;62885;51.374;6.170;2023-08-08T13:17:37;5.20;;;1.70;;
74371;SDS011;62885;51.374;6.170;2023-08-08T13:20:02;5.07;;;1.70;;
74371;SDS011;62885;51.374;6.170;2023-08-08T13:24:57;5.43;;;2.03;;
74371;SDS011;62885;51.374;6.170;2023-08-08T13:27:23;5.57;;;1.60;;
74371;SDS011;62885;51.374;6.170;2023-08-08T13:29:48;5.32;;;1.70;;
74371;SDS011;62885;51.374;6.170;2023-08-08T13:32:13;2.53;;;1.33;;
74371;SDS011;62885;51.374;6.170;2023-08-08T13:34:39;4.97;;;1.50;;
74371;SDS011;62885;51.374;6.170;2023-08-08T13:37:04;3.63;;;1.48;;
74371;SDS011;62885;51.374;6.170;2023-08-08T13:39:30;5.47;;;1.67;;
74371;SDS011;62885;51.374;6.170;2023-08-08T13:41:55;5.55;;;1.85;;
74371;SDS011;62885;51.374;6.170;2023-08-08T13:44:20;2.28;;;1.17;;
74371;SDS011;62885;51.374;6.170;2023-08-08T13:46:46;5.05;;;1.10;;
74371;SDS011;62885;51.374;6.170;2023-08-08T13:49:11;4.72;;;1.10;;
74371;SDS011;62885;51.374;6.170;2023-08-08T13:51:37;2.20;;;1.25;;
74371;SDS011;62885;51.374;6.170;2023-08-08T13:54:02;4.22;;;1.08;;
74371;SDS011;62885;51.374;6.170;2023-08-08T13:56:28;4.88;;;1.40;;
74371;SDS011;62885;51.374;6.170;2023-08-08T13:58:53;2.65;;;0.93;;
74371;SDS011;62885;51.374;6.170;2023-08-08T14:01:19;1.67;;;0.80;;
74371;SDS011;62885;51.374;6.170;2023-08-08T14:03:44;2.92;;;0.80;;
74371;SDS011;62885;51.374;6.170;2023-08-08T14:06:09;1.70;;;0.70;;
74371;SDS011;62885;51.374;6.170;2023-08-08T14:08:35;1.27;;;0.88;;
74371;SDS011;62885;51.374;6.170;2023-08-08T14:11:00;6.82;;;1.42;;
74371;SDS011;62885;51.374;6.170;2023-08-08T14:13:26;2.38;;;1.05;;
74371;SDS011;62885;51.374;6.170;2023-08-08T14:15:51;3.10;;;1.13;;
74371;SDS011;62885;51.374;6.170;2023-08-08T14:18:17;3.78;;;0.88;;
74371;SDS011;62885;51.374;6.170;2023-08-08T14:20:43;3.80;;;0.90;;
74371;SDS011;62885;51.374;6.170;2023-08-08T14:23:08;2.88;;;1.13;;
74371;SDS011;62885;51.374;6.170;2023-08-08T14:25:34;0.98;;;0.82;;
74371;SDS011;62885;51.374;6.170;2023-08-08T14:27:59;4.25;;;0.80;;
74371;SDS011;62885;51.374;6.170;2023-08-08T14:30:26;2.25;;;0.93;;
74371;SDS011;62885;51.374;6.170;2023-08-08T14:32:52;2.70;;;0.90;;
74371;SDS011;62885;51.374;6.170;2023-08-08T14:35:18;3.05;;;0.60;;
74371;SDS011;62885;51.374;6.170;2023-08-08T14:37:44;2.42;;;0.93;;
74371;SDS011;62885;51.374;6.170;2023-08-08T14:40:10;5.30;;;0.80;;
74371;SDS011;62885;51.374;6.170;2023-08-08T14:42:35;2.70;;;1.00;;
74371;SDS011;62885;51.374;6.170;2023-08-08T14:45:01;2.13;;;1.10;;
74371;SDS011;62885;51.374;6.170;2023-08-08T14:47:26;1.60;;;1.10;;